Terminal Aerodrome Forecast
Issued by NWS Cleveland, OH

Home | Current Version | Previous Version | Graphics & Text | Print | Product List | Glossary On
Versions: 1 2 3 4 5 6 7 8 9 10 11 12 13 14 15 16 17 18 19 20 21
636
FTUS41 KCLE 192335
TAFYNG
TAF
KYNG 192335Z 2000/2024 VRB03KT P6SM OVC015
     FM200200 15003KT P6SM OVC025
      TEMPO 2004/2008 5SM BR SCT025
     FM200800 16006KT P6SM SCT025 BKN150
     FM201500 17008KT P6SM OVC035
     FM202100 18008KT 4SM -SHRA OVC015=

USA.gov is the U.S. government's official web portal to all federal, state and local government web resources and services.